Time;durP1;ratioP1;P1;durP2;ratioP2;P2;SDS_P1;SDS_P2;PMS_P1;PMS_P2;Temp;Humidity;BMP_temperature;BMP_pressure;BME280_temperature;BME280_humidity;BME280_pressure;Samples;Min_cycle;Max_cycle;Signal;HPM_P1;HPM_P2
2022/05/29 00:00:53;;;;;;;3.83;2.10;;;;;;;18.73;37.68;99231.41;4198942;28;20284;-68
2022/05/29 00:02:54;;;;;;;3.40;1.77;;;;;;;18.55;37.68;99271.78;4192285;28;20781;-67
2022/05/29 00:04:56;;;;;;;4.83;2.20;;;;;;;19.00;37.65;99230.28;4190533;28;20238;-67
2022/05/29 00:06:58;;;;;;;2.90;2.07;;;;;;;18.59;38.18;99252.28;4194169;28;20804;-67
2022/05/29 00:09:00;;;;;;;4.47;2.20;;;;;;;18.47;38.00;99212.88;4197192;28;20283;-67
2022/05/29 00:11:04;;;;;;;3.13;1.97;;;;;;;18.44;38.00;99241.03;4193940;28;20234;-67
2022/05/29 00:13:06;;;;;;;4.07;2.20;;;;;;;18.94;37.33;99264.34;4198149;28;20710;-67
2022/05/29 00:15:09;;;;;;;8.63;2.67;;;;;;;18.16;38.30;99250.44;4199156;28;20235;-67
2022/05/29 00:17:10;;;;;;;5.83;2.00;;;;;;;18.37;38.83;99197.22;4200616;28;20295;-67
2022/05/29 00:19:13;;;;;;;4.03;1.80;;;;;;;18.48;38.11;99203.75;4197446;28;20445;-67
2022/05/29 00:21:14;;;;;;;3.43;2.27;;;;;;;18.18;38.76;99210.66;4202077;28;20305;-67
2022/05/29 00:23:18;;;;;;;2.70;1.77;;;;;;;17.90;39.05;99247.94;4199002;28;20645;-67
2022/05/29 00:25:19;;;;;;;5.93;2.20;;;;;;;18.00;38.57;99234.81;4201542;28;20626;-67
2022/05/29 00:27:21;;;;;;;3.27;1.93;;;;;;;18.14;38.56;99222.94;4199883;28;20224;-67
2022/05/29 00:29:23;;;;;;;3.87;2.17;;;;;;;17.87;39.01;99213.41;4200935;28;20457;-67
2022/05/29 00:31:27;;;;;;;3.40;1.80;;;;;;;18.86;37.62;99198.13;4199504;28;20269;-67
2022/05/29 00:33:28;;;;;;;5.07;2.40;;;;;;;18.31;38.36;99206.22;4192661;28;20231;-67
2022/05/29 00:35:30;;;;;;;4.67;1.97;;;;;;;18.09;38.44;99209.31;4194157;28;20230;-67
2022/05/29 00:37:39;;;;;;;5.77;2.50;;;;;;;18.25;38.85;99210.59;4197247;28;20872;-67
2022/05/29 00:39:42;;;;;;;7.80;2.10;;;;;;;18.17;38.14;99225.19;4200784;28;20307;-67
2022/05/29 00:41:44;;;;;;;4.27;1.70;;;;;;;17.91;38.50;99228.06;4200723;28;20289;-67
2022/05/29 00:44:19;;;;;;;5.13;2.20;;;;;;;18.87;37.70;99166.63;4197041;28;20354;-67
2022/05/29 00:46:21;;;;;;;4.07;1.90;;;;;;;18.26;38.44;99189.91;4194402;28;20951;-67
2022/05/29 00:48:23;;;;;;;4.13;2.03;;;;;;;18.92;37.45;99174.84;4200208;28;20279;-67
2022/05/29 00:50:25;;;;;;;7.20;3.07;;;;;;;18.08;38.24;99201.47;4194023;28;20231;-68
2022/05/29 00:52:28;;;;;;;5.30;2.37;;;;;;;19.20;36.97;99154.56;4200669;28;20230;-68
2022/05/29 00:54:37;;;;;;;4.00;2.13;;;;;;;17.58;39.27;99196.88;4199955;28;20227;-67
2022/05/29 00:56:39;;;;;;;3.60;2.33;;;;;;;18.49;38.66;99173.06;4195409;28;20223;-67
2022/05/29 00:58:43;;;;;;;8.17;2.40;;;;;;;18.41;38.95;99203.81;4196491;28;20206;-67
2022/05/29 01:00:45;;;;;;;6.03;2.53;;;;;;;17.68;40.22;99232.16;4198867;28;20230;-67
2022/05/29 01:02:47;;;;;;;6.40;2.10;;;;;;;18.55;39.72;99156.03;4198623;28;20225;-68
2022/05/29 01:04:48;;;;;;;6.93;2.33;;;;;;;17.24;41.15;99201.66;4195897;28;20366;-68
2022/05/29 01:06:52;;;;;;;6.37;2.60;;;;;;;17.49;40.47;99180.22;4197084;28;20817;-67
2022/05/29 01:08:55;;;;;;;4.07;2.00;;;;;;;17.39;40.39;99167.25;4197232;28;20217;-67
2022/05/29 01:11:09;;;;;;;5.13;2.20;;;;;;;17.49;40.39;99139.91;4197946;28;20399;-67
2022/05/29 01:13:22;;;;;;;6.37;2.73;;;;;;;16.87;40.52;99142.34;4198172;28;20740;-67
2022/05/29 01:15:29;;;;;;;4.57;2.27;;;;;;;16.85;40.19;99172.09;4199215;28;20230;-67
2022/05/29 01:17:33;;;;;;;5.17;2.67;;;;;;;16.84;40.49;99166.94;4198665;28;20810;-67
2022/05/29 01:19:54;;;;;;;4.90;2.73;;;;;;;17.76;39.21;99169.25;4193087;28;20326;-67
2022/05/29 01:22:08;;;;;;;3.17;2.10;;;;;;;17.82;39.36;99126.16;4198456;28;20308;-67
2022/05/29 01:24:27;;;;;;;3.53;2.60;;;;;;;17.21;39.49;99172.53;4199573;28;20711;-67
2022/05/29 01:26:47;;;;;;;5.83;2.40;;;;;;;16.66;39.75;99175.72;4193438;28;20283;-67
2022/05/29 01:29:04;;;;;;;5.07;2.43;;;;;;;17.04;39.45;99154.25;4193198;28;20371;-67
2022/05/29 01:31:20;;;;;;;6.40;2.23;;;;;;;17.85;38.71;99111.44;4197012;28;20238;-67
2022/05/29 01:33:26;;;;;;;5.43;2.80;;;;;;;16.76;39.55;99169.91;4196006;28;20235;-67
2022/05/29 01:35:34;;;;;;;4.60;2.20;;;;;;;17.36;39.18;99126.56;4200026;28;20414;-68
2022/05/29 01:37:56;;;;;;;5.13;2.57;;;;;;;17.98;38.29;99086.28;4192584;28;20226;-67
2022/05/29 01:40:03;;;;;;;3.40;2.33;;;;;;;17.81;38.12;99127.19;4190143;28;20488;-68
2022/05/29 01:42:40;;;;;;;3.50;1.97;;;;;;;17.49;39.07;99104.97;4196154;28;20979;-68
2022/05/29 01:44:52;;;;;;;3.70;2.27;;;;;;;18.08;38.14;99115.38;4175873;28;20620;-67
2022/05/29 01:47:02;;;;;;;7.67;2.40;;;;;;;17.29;39.28;99170.44;4193343;28;20223;-68
2022/05/29 01:49:36;;;;;;;4.57;2.00;;;;;;;17.73;38.62;99159.75;4192405;28;20233;-67
2022/05/29 01:51:43;;;;;;;5.73;2.33;;;;;;;17.55;38.88;99133.66;4197276;28;20227;-67
2022/05/29 01:53:51;;;;;;;5.07;2.23;;;;;;;17.02;39.77;99129.44;4196447;28;20242;-67
2022/05/29 01:55:58;;;;;;;5.00;2.70;;;;;;;17.41;38.54;99150.91;4196534;28;20222;-67
2022/05/29 01:58:09;;;;;;;6.73;2.40;;;;;;;17.71;38.39;99139.50;4198131;28;20281;-68
2022/05/29 02:00:16;;;;;;;6.00;3.13;;;;;;;17.10;39.03;99152.56;4197754;28;20264;-67
2022/05/29 02:02:25;;;;;;;6.07;2.30;;;;;;;17.48;38.56;99147.16;4193599;28;20656;-68
2022/05/29 02:04:31;;;;;;;3.87;2.33;;;;;;;17.67;38.54;99129.19;4198718;28;20254;-67
2022/05/29 02:09:06;;;;;;;5.40;2.83;;;;;;;17.25;38.73;99157.63;4193719;28;20675;-67
2022/05/29 02:11:22;;;;;;;6.70;2.67;;;;;;;17.08;39.49;99107.09;4193363;28;20246;-67
2022/05/29 02:13:29;;;;;;;9.87;3.43;;;;;;;16.51;40.23;99133.03;4197018;28;20230;-67
2022/05/29 02:15:41;;;;;;;9.27;2.57;;;;;;;16.86;40.04;99108.50;4193185;28;20234;-67
2022/05/29 02:17:50;;;;;;;6.97;2.43;;;;;;;16.58;40.49;99106.19;4195345;28;20231;-67
2022/05/29 02:19:58;;;;;;;6.60;2.90;;;;;;;16.18;40.43;99172.34;4198395;28;20244;-68
2022/05/29 02:22:12;;;;;;;6.43;2.37;;;;;;;16.66;39.67;99124.72;4192318;28;20760;-67
2022/05/29 02:24:18;;;;;;;5.17;2.63;;;;;;;16.91;40.10;99066.53;4196525;28;20226;-67
2022/05/29 02:26:25;;;;;;;4.93;2.30;;;;;;;16.94;39.56;99070.66;4191302;28;20234;-68
2022/05/29 02:28:34;;;;;;;7.00;3.40;;;;;;;16.60;39.79;99137.13;4200049;28;20230;-67
2022/05/29 02:30:54;;;;;;;8.07;2.60;;;;;;;16.66;39.75;99132.78;4196343;28;20315;-67
2022/05/29 02:33:23;;;;;;;7.07;2.80;;;;;;;16.89;39.72;99089.25;4195916;28;20269;-67
2022/05/29 02:35:33;;;;;;;7.87;2.80;;;;;;;16.69;40.05;99103.63;4194066;28;20381;-67
2022/05/29 02:37:41;;;;;;;6.37;3.00;;;;;;;17.17;39.61;99074.59;4197260;28;20234;-67
2022/05/29 02:40:01;;;;;;;4.07;2.77;;;;;;;17.11;39.60;99081.69;4197489;28;20233;-68
2022/05/29 02:42:22;;;;;;;5.87;2.30;;;;;;;16.87;40.07;99088.66;4195893;28;20222;-67
2022/05/29 02:44:54;;;;;;;6.43;2.77;;;;;;;17.70;38.84;99057.19;4196815;28;20823;-67
2022/05/29 02:47:24;;;;;;;6.03;2.30;;;;;;;17.40;39.23;99085.59;4170867;28;20304;-67
2022/05/29 02:49:26;;;;;;;7.07;2.60;;;;;;;17.51;39.50;99053.66;4196227;28;20284;-67
2022/05/29 02:52:05;;;;;;;6.80;2.40;;;;;;;17.87;39.33;99041.28;4198922;28;20230;-67
2022/05/29 02:54:12;;;;;;;5.80;2.50;;;;;;;17.04;40.60;99073.69;4192140;28;20481;-67
2022/05/29 02:56:14;;;;;;;7.47;2.90;;;;;;;17.59;39.66;99048.81;4199801;28;20655;-67
2022/05/29 02:58:22;;;;;;;9.30;3.07;;;;;;;17.52;39.41;99115.28;4197901;28;20276;-69
2022/05/29 03:00:24;;;;;;;4.60;2.40;;;;;;;17.56;39.42;99064.59;4199014;28;20702;-69
2022/05/29 03:02:48;;;;;;;4.83;2.30;;;;;;;17.79;39.39;99083.56;4197179;28;20296;-69
2022/05/29 03:04:59;;;;;;;4.33;2.40;;;;;;;17.46;39.36;99092.81;4189543;28;20273;-68
2022/05/29 03:07:31;;;;;;;6.67;2.80;;;;;;;17.74;39.38;99063.78;4198191;28;20401;-68
2022/05/29 03:10:14;;;;;;;5.77;2.43;;;;;;;17.41;39.70;99056.84;4199012;28;20851;-68
2022/05/29 03:12:43;;;;;;;6.30;2.80;;;;;;;17.02;40.61;99082.97;4194718;28;20223;-66
2022/05/29 03:15:08;;;;;;;5.43;2.37;;;;;;;17.22;40.28;99083.66;4192183;28;20235;-68
2022/05/29 03:17:16;;;;;;;7.10;2.40;;;;;;;17.16;40.56;99078.31;4198268;28;20233;-68
2022/05/29 03:19:33;;;;;;;6.77;2.60;;;;;;;16.97;41.06;99053.28;4192052;28;20287;-69
2022/05/29 03:21:49;;;;;;;6.67;2.90;;;;;;;17.79;39.98;99012.84;4196877;28;20323;-69
2022/05/29 03:24:21;;;;;;;7.70;2.77;;;;;;;17.06;40.16;99098.44;4190918;28;20226;-67
2022/05/29 03:26:32;;;;;;;7.87;2.90;;;;;;;17.62;39.70;99058.31;4193973;28;20223;-69
2022/05/29 03:28:42;;;;;;;6.20;2.40;;;;;;;16.29;42.20;99073.47;4198261;28;20234;-68
2022/05/29 03:30:49;;;;;;;5.50;2.70;;;;;;;17.05;40.81;99047.63;4196036;28;20764;-68
2022/05/29 03:32:57;;;;;;;4.50;3.07;;;;;;;16.64;41.40;99106.16;4198123;28;20195;-68
2022/05/29 03:34:58;;;;;;;5.17;2.50;;;;;;;16.05;42.12;99125.97;4196950;28;20436;-68
2022/05/29 03:37:00;;;;;;;6.20;2.40;;;;;;;15.20;43.50;99159.56;4191995;28;20288;-68
2022/05/29 03:39:02;;;;;;;7.00;2.87;;;;;;;16.90;41.75;99021.09;4195210;28;20262;-68
2022/05/29 03:41:33;;;;;;;7.40;3.23;;;;;;;15.54;43.37;99112.19;4195899;28;20295;-68
2022/05/29 03:43:34;;;;;;;5.17;2.33;;;;;;;15.51;44.48;99042.94;4197953;28;20257;-68
2022/05/29 03:45:36;;;;;;;11.00;3.00;;;;;;;15.18;44.88;99075.09;4197950;28;20227;-68
2022/05/29 03:47:39;;;;;;;6.50;2.80;;;;;;;15.86;43.82;99031.97;4202438;28;20290;-68
2022/05/29 03:49:40;;;;;;;6.83;2.70;;;;;;;15.74;44.39;99029.13;4197826;28;20235;-68
2022/05/29 03:51:42;;;;;;;7.33;3.10;;;;;;;15.49;44.12;99079.84;4194621;28;20234;-68
2022/05/29 03:53:44;;;;;;;6.27;2.60;;;;;;;15.00;45.18;99087.25;4198605;28;20288;-66
2022/05/29 03:55:45;;;;;;;11.40;2.83;;;;;;;15.93;43.72;99035.44;4198183;28;20783;-68
2022/05/29 03:57:48;;;;;;;4.73;2.93;;;;;;;15.73;44.45;99003.34;4198630;28;20279;-68
2022/05/29 03:59:49;;;;;;;4.93;2.87;;;;;;;15.79;43.93;99050.75;4190076;28;20906;-68
2022/05/29 04:01:51;;;;;;;8.83;3.60;;;;;;;15.45;44.64;99062.50;4200623;28;20280;-68
2022/05/29 04:03:54;;;;;;;4.33;2.63;;;;;;;16.18;43.42;99042.75;4201443;28;20242;-68
2022/05/29 04:05:56;;;;;;;8.33;3.00;;;;;;;16.13;43.77;99035.38;4197873;28;20903;-68
2022/05/29 04:12:39;;;;;;;10.17;3.27;;;;;;;17.04;41.95;99005.69;4197817;28;20515;-67
2022/05/29 04:14:43;;;;;;;8.70;3.20;;;;;;;16.73;42.12;99058.38;4200934;28;20211;-67
2022/05/29 04:16:44;;;;;;;5.03;2.80;;;;;;;15.80;43.38;99122.06;4201944;28;20206;-67
2022/05/29 04:18:46;;;;;;;7.17;2.67;;;;;;;16.51;42.45;99082.06;4197052;28;20328;-67
2022/05/29 04:20:51;;;;;;;7.77;2.77;;;;;;;16.02;43.47;99057.47;4201414;28;20226;-67
2022/05/29 04:22:53;;;;;;;5.63;2.80;;;;;;;15.85;43.70;99100.00;4196678;28;20812;-67
2022/05/29 04:24:55;;;;;;;7.13;2.87;;;;;;;15.22;44.05;99143.25;4198535;28;20195;-67
2022/05/29 04:26:56;;;;;;;5.63;2.97;;;;;;;16.01;43.69;99050.44;4193496;28;20299;-67
2022/05/29 04:29:00;;;;;;;9.23;3.00;;;;;;;16.18;43.06;99080.28;4195144;28;20415;-66
2022/05/29 04:31:02;;;;;;;4.87;2.87;;;;;;;16.88;42.81;99041.97;4197834;28;20276;-66
2022/05/29 04:33:04;;;;;;;7.73;2.73;;;;;;;16.79;42.53;99073.66;4199283;28;20258;-66
2022/05/29 04:35:06;;;;;;;5.13;2.60;;;;;;;15.99;43.64;99124.91;4202243;28;20226;-67
2022/05/29 04:37:09;;;;;;;8.60;2.73;;;;;;;16.22;44.06;99083.41;4201125;28;20922;-69
2022/05/29 04:39:10;;;;;;;7.27;2.50;;;;;;;15.93;44.56;99048.00;4197972;28;20923;-67
2022/05/29 04:41:12;;;;;;;7.57;3.20;;;;;;;15.83;44.79;99079.78;4198273;28;20242;-67
2022/05/29 04:43:15;;;;;;;5.53;2.60;;;;;;;15.97;44.62;99033.97;4196045;28;20238;-69
2022/05/29 04:45:17;;;;;;;5.70;2.13;;;;;;;16.53;43.64;99029.81;4198734;28;20933;-67
2022/05/29 04:47:18;;;;;;;5.40;2.77;;;;;;;15.93;44.89;99064.09;4194785;28;20231;-67
2022/05/29 04:49:20;;;;;;;9.33;2.73;;;;;;;16.35;44.10;99064.53;4197954;28;20264;-67
2022/05/29 04:51:21;;;;;;;8.23;2.70;;;;;;;15.25;45.47;99100.84;4201636;28;20234;-67
2022/05/29 04:53:24;;;;;;;9.97;3.70;;;;;;;14.88;45.30;99137.88;4197724;28;20448;-67
2022/05/29 04:55:25;;;;;;;9.57;2.80;;;;;;;15.26;44.73;99112.38;4199896;28;20660;-67
2022/05/29 04:57:27;;;;;;;7.70;3.00;;;;;;;16.53;43.40;99026.31;4198813;28;20262;-67
2022/05/29 04:59:29;;;;;;;8.77;2.67;;;;;;;15.59;44.33;99109.72;4199720;28;20226;-67
2022/05/29 05:01:30;;;;;;;9.67;3.40;;;;;;;15.51;44.31;99127.84;4193699;28;20238;-68
2022/05/29 05:03:32;;;;;;;14.83;3.70;;;;;;;14.69;45.83;99128.72;4196740;28;20922;-67
2022/05/29 05:05:34;;;;;;;6.57;2.50;;;;;;;15.01;45.80;99072.00;4200002;28;20805;-67
2022/05/29 05:07:36;;;;;;;6.97;2.70;;;;;;;14.77;45.88;99073.41;4198939;28;20230;-68
2022/05/29 05:09:38;;;;;;;6.93;2.70;;;;;;;14.66;46.58;99054.22;4200041;28;20227;-67
2022/05/29 05:11:39;;;;;;;5.97;2.80;;;;;;;15.93;44.36;99024.72;4196099;28;20276;-67
2022/05/29 05:13:41;;;;;;;7.07;2.80;;;;;;;15.89;44.33;99036.88;4199001;28;20876;-68
2022/05/29 05:15:43;;;;;;;4.57;2.77;;;;;;;14.85;45.64;99097.31;4192310;28;20238;-67
2022/05/29 05:17:44;;;;;;;6.40;2.97;;;;;;;16.13;44.24;99018.44;4201533;28;20915;-68
2022/05/29 05:19:46;;;;;;;4.53;2.90;;;;;;;15.87;44.31;99063.06;4180809;28;20231;-67
2022/05/29 05:21:48;;;;;;;7.33;2.90;;;;;;;14.51;46.09;99157.88;4197677;28;20528;-67
2022/05/29 05:23:50;;;;;;;11.27;2.80;;;;;;;14.60;46.52;99063.03;4194368;28;20260;-67
2022/05/29 05:25:52;;;;;;;8.87;3.13;;;;;;;14.96;46.37;99023.59;4195880;28;20227;-67
2022/05/29 05:27:53;;;;;;;6.40;3.00;;;;;;;14.30;47.24;99094.63;4197661;28;20333;-67
2022/05/29 05:29:55;;;;;;;6.63;2.80;;;;;;;15.96;44.71;99010.03;4197207;28;20226;-67
2022/05/29 05:31:57;;;;;;;7.03;3.20;;;;;;;15.44;44.95;99082.31;4199329;28;20438;-67
2022/05/29 05:33:59;;;;;;;6.53;3.50;;;;;;;14.88;46.34;99087.03;4195849;28;20235;-67
2022/05/29 05:36:01;;;;;;;5.87;2.70;;;;;;;14.63;46.79;99085.88;4196623;28;20252;-67
2022/05/29 05:38:05;;;;;;;7.50;2.70;;;;;;;16.00;44.72;99025.50;4193943;28;20227;-67
2022/05/29 05:40:12;;;;;;;6.87;2.70;;;;;;;15.16;45.65;99109.28;4198941;28;20234;-67
2022/05/29 05:42:13;;;;;;;8.53;2.97;;;;;;;15.93;45.00;99039.94;4197023;28;20592;-67
2022/05/29 05:44:16;;;;;;;9.13;3.03;;;;;;;14.80;46.33;99123.81;4198260;28;20970;-67
2022/05/29 05:46:18;;;;;;;7.03;3.07;;;;;;;15.11;45.95;99106.41;4196376;28;20230;-67
2022/05/29 05:48:23;;;;;;;9.23;3.10;;;;;;;14.24;47.52;99106.13;4198558;28;20843;-67
2022/05/29 05:50:25;;;;;;;5.33;2.77;;;;;;;14.89;47.13;99035.13;4199187;28;20276;-67
2022/05/29 05:52:27;;;;;;;6.83;2.90;;;;;;;15.02;46.96;99076.34;4198668;28;20223;-67
2022/05/29 05:54:30;;;;;;;7.53;3.47;;;;;;;14.71;48.21;99053.59;4193909;28;20275;-70
2022/05/29 05:56:32;;;;;;;7.83;3.23;;;;;;;15.14;47.81;99095.28;4192640;28;20794;-67
2022/05/29 05:58:34;;;;;;;7.93;3.73;;;;;;;15.83;47.73;99032.38;4193440;28;20287;-67
2022/05/29 06:00:35;;;;;;;7.33;2.50;;;;;;;14.68;49.80;99116.38;4195424;28;20226;-69
2022/05/29 06:02:42;;;;;;;6.67;2.67;;;;;;;13.82;51.49;99145.31;4194047;28;20302;-68
2022/05/29 06:04:44;;;;;;;11.47;3.70;;;;;;;15.28;50.17;99035.31;4195352;28;20256;-69
2022/05/29 06:06:46;;;;;;;8.97;3.50;;;;;;;15.11;50.71;99067.06;4200175;28;20218;-68
2022/05/29 06:08:48;;;;;;;8.77;3.07;;;;;;;13.95;53.42;99116.84;4190926;28;20225;-68
2022/05/29 06:10:50;;;;;;;8.93;3.63;;;;;;;15.42;49.70;99090.56;4199403;28;20307;-68
2022/05/29 06:12:52;;;;;;;8.67;3.00;;;;;;;15.91;50.21;99067.00;4200335;28;20385;-68
2022/05/29 06:14:54;;;;;;;5.97;2.90;;;;;;;15.23;51.45;99112.78;4196623;28;20232;-68
2022/05/29 06:16:59;;;;;;;5.47;3.10;;;;;;;15.44;51.21;99042.94;4200517;28;20202;-68
2022/05/29 06:19:01;;;;;;;10.53;3.30;;;;;;;16.47;49.11;99028.00;4193194;28;20231;-68
2022/05/29 06:21:04;;;;;;;9.10;3.30;;;;;;;16.57;48.72;99053.53;4196038;28;20235;-68
2022/05/29 06:23:06;;;;;;;8.63;3.37;;;;;;;16.24;49.78;99102.78;4193621;28;20619;-68
2022/05/29 06:25:10;;;;;;;9.43;3.10;;;;;;;15.79;51.28;99101.66;4193139;28;20234;-68
2022/05/29 06:27:12;;;;;;;8.13;2.73;;;;;;;16.13;49.96;99094.38;4195045;28;20234;-68
2022/05/29 06:29:14;;;;;;;9.60;3.50;;;;;;;17.28;47.41;99064.00;4198280;28;20436;-68
2022/05/29 06:31:15;;;;;;;6.93;3.30;;;;;;;16.74;49.71;99137.91;4192645;28;20794;-69
2022/05/29 06:33:18;;;;;;;6.67;3.20;;;;;;;16.15;51.26;99132.53;4190919;28;20238;-70
2022/05/29 06:35:20;;;;;;;10.43;3.30;;;;;;;16.60;50.62;99091.50;4193610;28;20288;-69
2022/05/29 06:37:22;;;;;;;8.00;3.57;;;;;;;16.64;50.41;99108.81;4196740;28;20296;-68
2022/05/29 06:39:30;;;;;;;7.83;2.80;;;;;;;16.94;48.63;99116.31;4197263;28;20237;-69
2022/05/29 06:41:33;;;;;;;9.70;2.67;;;;;;;16.90;48.57;99136.56;4198496;28;20284;-69
2022/05/29 06:43:36;;;;;;;5.97;2.80;;;;;;;17.26;48.85;99095.63;4191769;28;20259;-68
2022/05/29 06:45:37;;;;;;;5.50;3.30;;;;;;;17.14;48.67;99121.53;4197553;28;20288;-68
2022/05/29 06:47:39;;;;;;;11.33;3.80;;;;;;;16.80;49.65;99150.44;4195812;28;20253;-68
2022/05/29 06:49:41;;;;;;;4.57;2.83;;;;;;;16.80;49.90;99152.31;4194164;28;20284;-68
2022/05/29 06:51:43;;;;;;;7.17;3.40;;;;;;;17.13;49.35;99122.59;4196720;28;20256;-68
2022/05/29 06:53:45;;;;;;;5.60;3.37;;;;;;;16.80;49.47;99145.06;4197894;28;20371;-66
2022/05/29 06:55:53;;;;;;;5.63;3.20;;;;;;;17.67;47.53;99080.81;4196178;28;20235;-66
2022/05/29 06:57:55;;;;;;;5.00;2.80;;;;;;;16.94;48.98;99159.28;4193211;28;20222;-69
2022/05/29 07:07:01;;;;;;;5.47;3.00;;;;;;;16.63;49.95;99131.31;4197931;28;20307;-68
2022/05/29 07:09:04;;;;;;;9.37;3.00;;;;;;;17.52;47.75;99107.22;4194736;28;20291;-68
2022/05/29 07:11:15;;;;;;;10.00;3.33;;;;;;;17.85;48.47;99100.69;4194306;28;20242;-68
2022/05/29 07:13:17;;;;;;;7.33;3.60;;;;;;;17.45;48.20;99170.97;4192650;28;20375;-68
2022/05/29 07:15:19;;;;;;;9.63;3.37;;;;;;;17.57;47.31;99154.94;4192490;28;20230;-68
2022/05/29 07:17:24;;;;;;;8.97;3.40;;;;;;;16.78;49.33;99184.75;4199431;28;20234;-68
2022/05/29 07:19:28;;;;;;;7.80;3.43;;;;;;;17.33;47.72;99170.84;4197632;28;20242;-68
2022/05/29 07:21:33;;;;;;;7.30;3.93;;;;;;;16.74;49.36;99165.56;4198422;28;20288;-68
2022/05/29 07:23:36;;;;;;;7.63;4.23;;;;;;;17.13;48.95;99143.22;4199266;28;20242;-68
2022/05/29 07:25:38;;;;;;;7.93;3.77;;;;;;;16.92;49.26;99162.19;4197205;28;20222;-68
2022/05/29 07:27:39;;;;;;;8.43;3.10;;;;;;;16.99;49.93;99183.63;4200060;28;20279;-67
2022/05/29 07:29:42;;;;;;;8.20;3.47;;;;;;;17.36;49.09;99138.16;4200464;28;20661;-68
2022/05/29 07:31:47;;;;;;;5.83;3.23;;;;;;;17.63;48.48;99145.97;4202431;28;20293;-68
2022/05/29 07:33:49;;;;;;;6.70;3.10;;;;;;;17.40;48.75;99166.22;4199953;28;20234;-68
2022/05/29 07:35:52;;;;;;;10.17;3.40;;;;;;;16.84;50.68;99175.84;4194935;28;20308;-68
2022/05/29 07:37:54;;;;;;;6.97;3.20;;;;;;;16.50;50.43;99169.81;4195165;28;20288;-68
2022/05/29 07:39:56;;;;;;;6.70;3.10;;;;;;;17.29;50.02;99132.00;4200659;28;20230;-68
2022/05/29 07:44:17;;;;;;;11.27;3.87;;;;;;;16.72;51.21;99202.53;4198720;28;20237;-68
2022/05/29 07:46:20;;;;;;;8.23;3.07;;;;;;;17.47;49.45;99172.38;4199848;28;20280;-68
2022/05/29 07:48:25;;;;;;;7.87;3.03;;;;;;;16.93;49.96;99217.50;4201248;28;20234;-68
2022/05/29 07:50:27;;;;;;;8.97;3.50;;;;;;;17.54;49.31;99147.31;4195682;28;20238;-67
2022/05/29 07:52:28;;;;;;;7.93;3.20;;;;;;;17.49;50.43;99161.41;4196990;28;20289;-67
2022/05/29 07:54:30;;;;;;;5.97;3.33;;;;;;;17.67;49.70;99152.56;4200198;28;20794;-68
2022/05/29 07:56:34;;;;;;;7.93;3.00;;;;;;;17.00;50.86;99208.59;4199993;28;20231;-68
2022/05/29 07:58:40;;;;;;;6.70;3.17;;;;;;;16.16;51.15;99259.38;4202392;28;20312;-67
2022/05/29 08:00:41;;;;;;;8.77;3.27;;;;;;;16.92;50.61;99178.28;4199387;28;20831;-67
2022/05/29 08:02:43;;;;;;;6.43;2.83;;;;;;;17.32;49.40;99184.47;4193319;28;20299;-68
2022/05/29 08:04:45;;;;;;;8.37;3.60;;;;;;;17.75;49.97;99143.38;4195929;28;20211;-68
2022/05/29 08:06:47;;;;;;;8.40;3.43;;;;;;;17.16;50.55;99228.75;4200929;28;20638;-68
2022/05/29 08:08:49;;;;;;;7.30;2.90;;;;;;;17.28;50.16;99190.28;4198514;28;20227;-67
2022/05/29 08:10:50;;;;;;;8.03;3.47;;;;;;;17.75;50.32;99170.28;4192215;28;20300;-68
2022/05/29 08:12:52;;;;;;;7.13;2.90;;;;;;;17.57;49.67;99193.38;4193277;28;20656;-68
2022/05/29 08:14:54;;;;;;;6.67;3.13;;;;;;;16.81;51.17;99248.75;4199453;28;20206;-68
2022/05/29 08:16:56;;;;;;;10.03;3.00;;;;;;;16.76;49.91;99219.03;4196311;28;20195;-67
2022/05/29 08:18:57;;;;;;;7.60;3.10;;;;;;;16.83;51.04;99232.44;4199058;28;20794;-67
2022/05/29 08:20:59;;;;;;;7.17;3.40;;;;;;;17.40;49.78;99166.22;4195133;28;20238;-68
2022/05/29 08:23:01;;;;;;;8.97;3.30;;;;;;;17.60;49.35;99178.69;4200631;28;20382;-68
2022/05/29 08:32:24;;;;;;;5.70;2.90;;;;;;;17.89;49.32;99160.25;4192650;28;20344;-68
2022/05/29 08:34:25;;;;;;;6.73;2.83;;;;;;;17.74;48.43;99182.09;4194266;28;20219;-68
2022/05/29 08:36:33;;;;;;;5.87;2.87;;;;;;;17.90;47.98;99189.59;4195832;28;20318;-68
2022/05/29 08:38:39;;;;;;;7.23;2.60;;;;;;;16.72;48.23;99247.34;4193098;28;20592;-68
2022/05/29 08:40:49;;;;;;;6.17;3.03;;;;;;;17.90;47.08;99168.06;4198477;28;20316;-67
2022/05/29 08:42:51;;;;;;;7.80;3.03;;;;;;;18.18;46.24;99207.97;4193325;28;20855;-68
2022/05/29 08:44:53;;;;;;;5.57;2.77;;;;;;;18.28;46.03;99218.22;4199921;28;20359;-68
2022/05/29 08:47:01;;;;;;;5.43;2.80;;;;;;;18.42;47.06;99202.75;4199221;28;20306;-68
2022/05/29 08:49:03;;;;;;;7.27;3.07;;;;;;;17.38;47.53;99283.88;4193311;28;20783;-68
2022/05/29 08:51:32;;;;;;;5.97;2.90;;;;;;;18.53;46.48;99202.03;4197811;28;20780;-68
2022/05/29 08:53:41;;;;;;;10.50;2.87;;;;;;;17.65;47.30;99251.44;4198529;28;20234;-67
2022/05/29 08:55:55;;;;;;;7.23;3.40;;;;;;;17.61;47.05;99274.41;4200614;28;20728;-67
2022/05/29 08:58:06;;;;;;;9.17;3.33;;;;;;;17.96;46.52;99247.88;4188269;28;20288;-68
2022/05/29 09:00:37;;;;;;;7.33;3.03;;;;;;;18.13;46.69;99201.63;4190637;28;20283;-68
2022/05/29 09:03:08;;;;;;;6.13;2.97;;;;;;;17.53;47.58;99275.53;4189214;28;20249;-67
2022/05/29 09:05:13;;;;;;;5.70;2.67;;;;;;;17.99;47.41;99223.25;4197662;28;20295;-67
2022/05/29 09:07:18;;;;;;;6.57;2.93;;;;;;;18.25;46.80;99215.97;4192333;28;20239;-67
2022/05/29 09:09:37;;;;;;;7.83;3.37;;;;;;;16.98;47.52;99240.22;4192670;28;20281;-68
2022/05/29 09:11:47;;;;;;;7.00;2.97;;;;;;;17.60;44.50;99272.78;4194610;28;20222;-68
2022/05/29 09:13:54;;;;;;;5.17;2.50;;;;;;;17.12;46.61;99295.53;4192329;28;20238;-67
2022/05/29 09:16:04;;;;;;;6.73;3.30;;;;;;;16.99;46.17;99260.66;4199785;28;20222;-68
2022/05/29 09:18:26;;;;;;;9.17;2.77;;;;;;;17.52;46.50;99228.16;4197236;28;20782;-67
2022/05/29 09:20:39;;;;;;;5.93;3.27;;;;;;;17.89;46.53;99228.28;4190745;28;20246;-68
2022/05/29 09:22:47;;;;;;;8.67;3.00;;;;;;;17.54;46.28;99230.63;4194573;28;20222;-67
2022/05/29 09:25:10;;;;;;;8.17;3.00;;;;;;;16.84;46.74;99306.56;4192014;28;20199;-68
2022/05/29 09:27:13;;;;;;;6.23;3.00;;;;;;;18.25;45.59;99182.88;4192110;28;20289;-68
2022/05/29 09:29:15;;;;;;;6.83;3.27;;;;;;;17.55;46.42;99249.25;4191380;28;20318;-68
2022/05/29 09:31:25;;;;;;;7.40;3.07;;;;;;;17.95;45.43;99221.19;4194537;28;20765;-67
2022/05/29 09:33:29;;;;;;;4.57;2.60;;;;;;;18.31;44.67;99216.97;4194621;28;20242;-68
2022/05/29 09:35:55;;;;;;;5.77;3.17;;;;;;;17.99;45.35;99231.31;4195672;28;20239;-68
2022/05/29 09:38:20;;;;;;;3.67;2.60;;;;;;;18.37;44.82;99208.84;4197216;28;20231;-68
2022/05/29 09:40:26;;;;;;;2.80;2.60;;;;;;;18.26;44.12;99236.47;4192451;28;20327;-68
2022/05/29 09:42:39;;;;;;;5.97;2.50;;;;;;;17.82;45.31;99230.22;4193153;28;20236;-67
2022/05/29 09:45:22;;;;;;;5.07;2.10;;;;;;;17.09;45.50;99309.38;4187537;28;20644;-69
2022/05/29 09:50:07;;;;;;;6.60;2.40;;;;;;;18.57;44.65;99194.31;4197592;28;20245;-67
2022/05/29 09:52:22;;;;;;;4.47;2.10;;;;;;;17.78;45.00;99242.44;4198050;28;20226;-66
2022/05/29 09:54:33;;;;;;;6.67;2.20;;;;;;;17.25;45.08;99241.72;4198628;28;20230;-67
2022/05/29 09:56:35;;;;;;;6.43;2.47;;;;;;;17.36;45.24;99255.56;4188363;28;20234;-67
2022/05/29 09:58:45;;;;;;;2.97;2.30;;;;;;;18.51;44.51;99203.28;4193739;28;20231;-67
2022/05/29 10:00:54;;;;;;;3.00;2.37;;;;;;;18.40;44.31;99229.91;4197037;28;20785;-67
2022/05/29 10:03:01;;;;;;;3.80;1.97;;;;;;;17.89;45.02;99300.91;4194797;28;20597;-67
2022/05/29 10:05:07;;;;;;;4.90;2.30;;;;;;;18.49;44.02;99200.00;4192144;28;20619;-67
2022/05/29 10:07:29;;;;;;;4.10;2.00;;;;;;;18.60;44.04;99191.19;4194023;28;20591;-67
2022/05/29 10:09:31;;;;;;;6.20;2.20;;;;;;;18.52;43.79;99200.38;4195845;28;20235;-67
2022/05/29 10:11:33;;;;;;;2.60;2.10;;;;;;;18.24;44.18;99245.81;4197381;28;20597;-67
2022/05/29 10:13:38;;;;;;;3.93;2.33;;;;;;;18.07;43.35;99267.06;4200222;28;20238;-69
2022/05/29 10:15:41;;;;;;;3.47;1.87;;;;;;;18.21;42.58;99261.34;4195251;28;20231;-72
2022/05/29 10:17:43;;;;;;;4.77;2.07;;;;;;;19.56;42.65;99193.25;4198873;28;20547;-73
2022/05/29 10:19:47;;;;;;;3.97;2.17;;;;;;;18.92;43.52;99245.72;4195271;28;20293;-75
2022/05/29 10:21:50;;;;;;;5.30;2.30;;;;;;;19.16;43.32;99220.75;4197489;28;20734;-75
2022/05/29 10:24:08;;;;;;;6.23;2.57;;;;;;;18.87;41.90;99259.03;4196609;28;20226;-76